Terminal Aerodrome Forecast
Issued by NWS

Home | Current Version | Previous Version | Text Only | Print | Product List | Glossary On
Versions: 1 2 3 4 5 6 7 8 9 10 11 12
000
FTUS42 TJSJ 270500 RRA
TAFNCM
TAF
TNCM 270555Z 2706/2806 08010KT P6SM SCT021
     FM271300 11012KT P6SM SCT018 SCT025
     FM272100 09010KT P6SM SCT022=

USA.gov is the U.S. government's official web portal to all federal, state and local government web resources and services.